createdAt,value
2018-07-31T00:02:10.792Z,24.00
2018-07-31T00:06:22.484Z,23.90
2018-07-31T00:10:25.353Z,23.90
2018-07-31T00:14:28.234Z,23.90
2018-07-31T00:18:30.955Z,23.80
2018-07-31T00:22:33.859Z,23.80
2018-07-31T00:26:36.611Z,23.70
2018-07-31T00:30:39.335Z,23.70
2018-07-31T00:34:42.222Z,23.70
2018-07-31T00:38:45.003Z,23.60
2018-07-31T00:42:47.907Z,23.50
2018-07-31T00:46:50.828Z,23.50
2018-07-31T00:50:53.601Z,23.40
2018-07-31T00:54:56.286Z,23.40
2018-07-31T00:58:59.068Z,23.30
2018-07-31T01:03:01.748Z,23.30
2018-07-31T01:07:05.025Z,23.20
2018-07-31T01:11:07.785Z,23.10
2018-07-31T01:15:10.544Z,23.10
2018-07-31T01:19:13.363Z,23.10
2018-07-31T01:23:16.130Z,23.00
2018-07-31T01:27:18.870Z,22.90
2018-07-31T01:31:21.674Z,22.80
2018-07-31T01:35:24.470Z,22.80
2018-07-31T01:39:27.262Z,22.90
2018-07-31T01:43:30.022Z,22.80
2018-07-31T01:47:32.786Z,22.80
2018-07-31T01:51:35.609Z,22.80
2018-07-31T01:55:38.374Z,22.70
2018-07-31T01:59:41.252Z,22.60
2018-07-31T02:03:43.992Z,22.60
2018-07-31T02:07:46.773Z,22.60
2018-07-31T02:11:49.666Z,22.40
2018-07-31T02:15:52.458Z,22.40
2018-07-31T02:19:55.341Z,22.30
2018-07-31T02:23:58.140Z,22.20
2018-07-31T02:28:01.047Z,22.20
2018-07-31T02:32:03.927Z,22.10
2018-07-31T02:36:06.726Z,22.00
2018-07-31T02:40:09.710Z,22.00
2018-07-31T02:44:12.486Z,21.90
2018-07-31T02:48:15.289Z,21.90
2018-07-31T02:56:20.834Z,21.80
2018-07-31T03:00:23.716Z,21.70
2018-07-31T03:04:26.455Z,21.70
2018-07-31T03:08:29.244Z,21.60
2018-07-31T03:12:32.059Z,21.60
2018-07-31T03:16:34.858Z,21.60
2018-07-31T03:20:37.662Z,21.50
2018-07-31T03:24:40.520Z,21.40
2018-07-31T03:28:43.334Z,21.30
2018-07-31T03:32:46.220Z,21.30
2018-07-31T03:36:48.986Z,21.20
2018-07-31T03:40:51.839Z,21.20
2018-07-31T03:44:54.603Z,21.10
2018-07-31T03:48:57.460Z,21.10
2018-07-31T03:53:00.249Z,21.10
2018-07-31T03:57:03.191Z,21.10
2018-07-31T04:01:06.085Z,21.10
2018-07-31T04:05:08.938Z,21.10
2018-07-31T04:09:12.717Z,21.10
2018-07-31T04:13:15.450Z,21.10
2018-07-31T04:17:18.252Z,21.10
2018-07-31T04:21:21.055Z,21.10
2018-07-31T04:25:24.510Z,21.10
2018-07-31T04:33:30.025Z,21.10
2018-07-31T04:37:32.849Z,21.10
2018-07-31T04:41:35.564Z,21.20
2018-07-31T04:45:38.348Z,21.30
2018-07-31T04:49:41.066Z,21.40
2018-07-31T04:53:43.895Z,21.50
2018-07-31T04:57:47.200Z,21.60
2018-07-31T05:01:50.016Z,21.70
2018-07-31T05:05:52.748Z,21.90
2018-07-31T05:09:55.584Z,21.90
2018-07-31T05:13:58.413Z,22.00
2018-07-31T05:18:01.174Z,22.20
2018-07-31T05:22:03.956Z,22.30
2018-07-31T05:26:06.758Z,22.50
2018-07-31T05:30:10.390Z,22.70
2018-07-31T05:34:14.091Z,22.90
2018-07-31T05:38:16.968Z,23.00
2018-07-31T05:42:19.742Z,22.80
2018-07-31T05:46:22.470Z,23.10
2018-07-31T05:50:25.289Z,23.40
2018-07-31T05:54:28.051Z,23.60
2018-07-31T05:58:30.868Z,23.70
2018-07-31T06:02:33.731Z,23.90
2018-07-31T06:06:36.634Z,23.90
2018-07-31T06:10:39.483Z,24.10
2018-07-31T06:14:42.192Z,24.50
2018-07-31T06:18:44.963Z,24.60
2018-07-31T06:22:47.995Z,24.60
2018-07-31T06:26:50.734Z,24.80
2018-07-31T06:30:53.508Z,25.10
2018-07-31T06:34:56.275Z,25.10
2018-07-31T06:38:59.060Z,25.50
2018-07-31T06:47:04.812Z,26.00
2018-07-31T06:51:08.204Z,26.30
2018-07-31T06:55:11.019Z,26.60
2018-07-31T06:59:13.838Z,26.50
2018-07-31T07:07:19.410Z,26.60
2018-07-31T07:11:22.186Z,27.10
2018-07-31T07:15:24.959Z,27.30
2018-07-31T07:19:27.681Z,27.10
2018-07-31T07:23:30.422Z,27.70
2018-07-31T07:27:33.306Z,28.50
2018-07-31T07:31:36.043Z,28.90
2018-07-31T07:35:38.850Z,29.10
2018-07-31T07:39:41.610Z,29.20
2018-07-31T07:43:44.502Z,29.00
2018-07-31T07:47:47.238Z,29.00
2018-07-31T07:51:49.996Z,29.20
2018-07-31T07:55:52.717Z,29.80
2018-07-31T07:59:55.446Z,29.50
2018-07-31T08:03:58.336Z,30.00
2018-07-31T08:08:02.611Z,30.10
2018-07-31T08:12:05.366Z,29.90
2018-07-31T08:16:08.103Z,30.20
2018-07-31T08:20:11.043Z,30.30
2018-07-31T08:24:13.873Z,30.80
2018-07-31T08:28:16.685Z,30.50
2018-07-31T08:32:19.569Z,30.40
2018-07-31T08:36:22.430Z,30.10
2018-07-31T08:40:25.187Z,30.10
2018-07-31T08:44:27.920Z,30.00
2018-07-31T08:48:30.686Z,30.90
2018-07-31T08:52:33.479Z,31.40
2018-07-31T08:56:36.305Z,30.90
2018-07-31T09:00:39.120Z,31.30
2018-07-31T09:04:41.853Z,32.50
2018-07-31T09:08:44.655Z,32.60
2018-07-31T09:12:47.406Z,32.20
2018-07-31T09:16:50.223Z,33.60
2018-07-31T09:20:53.125Z,34.00
2018-07-31T09:24:55.888Z,33.60
2018-07-31T09:28:58.601Z,32.60
2018-07-31T09:33:06.363Z,32.90
2018-07-31T09:37:09.065Z,32.60
2018-07-31T09:41:11.811Z,33.20
2018-07-31T09:45:14.590Z,33.40
2018-07-31T09:49:17.485Z,33.10
2018-07-31T09:53:20.390Z,32.40
2018-07-31T09:57:23.164Z,32.30
2018-07-31T10:01:25.943Z,32.20
2018-07-31T10:05:28.697Z,32.00
2018-07-31T10:09:31.489Z,31.90
2018-07-31T10:13:34.260Z,32.00
2018-07-31T10:17:37.009Z,32.10
2018-07-31T10:21:39.819Z,32.60
2018-07-31T10:25:42.604Z,33.80
2018-07-31T10:29:45.420Z,33.80
2018-07-31T10:33:48.222Z,33.00
2018-07-31T10:37:51.125Z,32.50
2018-07-31T10:41:53.998Z,33.30
2018-07-31T10:45:56.876Z,33.70
2018-07-31T10:49:59.698Z,33.60
2018-07-31T10:54:02.632Z,34.30
2018-07-31T10:58:05.599Z,33.20
2018-07-31T11:02:08.455Z,32.70
2018-07-31T11:06:11.330Z,32.40
2018-07-31T11:10:14.170Z,31.80
2018-07-31T11:14:16.903Z,32.40
2018-07-31T11:22:22.411Z,32.00
2018-07-31T11:26:25.179Z,32.30
2018-07-31T11:30:28.179Z,32.70
2018-07-31T11:34:30.972Z,32.50
2018-07-31T11:38:33.747Z,32.80
2018-07-31T11:42:36.426Z,32.20
2018-07-31T11:46:39.243Z,33.30
2018-07-31T11:50:42.758Z,33.30
2018-07-31T11:54:45.511Z,33.40
2018-07-31T11:58:48.235Z,34.00
2018-07-31T12:02:51.092Z,33.80
2018-07-31T12:06:53.949Z,34.60
2018-07-31T12:10:56.757Z,34.00
2018-07-31T12:14:59.485Z,34.00
2018-07-31T12:19:02.318Z,34.70
2018-07-31T12:23:05.072Z,34.20
2018-07-31T12:27:07.893Z,34.50
2018-07-31T12:31:10.609Z,35.00
2018-07-31T12:35:13.356Z,34.50
2018-07-31T12:39:16.194Z,33.40
2018-07-31T12:43:18.886Z,33.30
2018-07-31T12:47:21.604Z,33.30
2018-07-31T12:51:24.414Z,33.00
2018-07-31T12:55:27.220Z,33.20
2018-07-31T12:59:29.965Z,32.90
2018-07-31T13:03:32.845Z,33.20
2018-07-31T13:07:35.671Z,33.60
2018-07-31T13:11:39.174Z,33.30
2018-07-31T13:15:41.996Z,32.90
2018-07-31T13:19:44.790Z,34.00
2018-07-31T13:23:47.639Z,33.50
2018-07-31T13:27:50.461Z,34.30
2018-07-31T13:35:55.876Z,34.40
2018-07-31T13:39:58.613Z,33.20
2018-07-31T13:44:01.533Z,33.80
2018-07-31T13:48:04.128Z,33.90
2018-07-31T13:52:06.907Z,33.90
2018-07-31T13:56:09.683Z,33.80
2018-07-31T14:00:12.441Z,33.70
2018-07-31T14:04:15.263Z,33.70
2018-07-31T14:08:18.095Z,33.70
2018-07-31T14:12:20.959Z,33.60
2018-07-31T14:16:23.858Z,33.80
2018-07-31T14:20:26.555Z,33.60
2018-07-31T14:24:29.479Z,33.20
2018-07-31T14:28:32.243Z,33.10
2018-07-31T14:32:35.319Z,33.20
2018-07-31T14:36:38.195Z,32.90
2018-07-31T14:40:40.903Z,33.00
2018-07-31T14:44:43.756Z,32.90
2018-07-31T14:48:46.562Z,32.50
2018-07-31T14:52:49.427Z,32.40
2018-07-31T14:56:52.281Z,32.60
2018-07-31T15:00:55.082Z,32.40
2018-07-31T15:04:57.831Z,31.70
2018-07-31T15:09:00.566Z,31.10
2018-07-31T15:13:03.589Z,30.80
2018-07-31T15:17:06.481Z,31.30
2018-07-31T15:21:09.307Z,31.70
2018-07-31T15:25:12.052Z,31.70
2018-07-31T15:29:14.732Z,31.70
2018-07-31T15:33:17.552Z,31.80
2018-07-31T15:37:20.371Z,31.80
2018-07-31T15:41:23.103Z,31.20
2018-07-31T15:45:25.840Z,31.30
2018-07-31T15:49:28.705Z,31.20
2018-07-31T15:53:31.422Z,30.90
2018-07-31T15:57:34.143Z,30.60
2018-07-31T16:01:36.975Z,30.40
2018-07-31T16:05:39.850Z,30.40
2018-07-31T16:09:42.626Z,30.20
2018-07-31T16:13:45.382Z,30.20
2018-07-31T16:17:48.131Z,30.10
2018-07-31T16:21:51.186Z,30.10
2018-07-31T16:25:54.213Z,30.00
2018-07-31T16:29:57.083Z,30.00
2018-07-31T16:33:59.844Z,30.20
2018-07-31T16:38:02.646Z,30.40
2018-07-31T16:42:05.653Z,30.30
2018-07-31T16:46:08.581Z,30.10
2018-07-31T16:50:11.436Z,30.30
2018-07-31T16:54:14.192Z,30.40
2018-07-31T16:58:17.028Z,30.40
2018-07-31T17:02:19.874Z,30.30
2018-07-31T17:06:22.716Z,30.30
2018-07-31T17:10:25.550Z,30.10
2018-07-31T17:14:28.417Z,29.80
2018-07-31T17:18:31.251Z,29.40
2018-07-31T17:22:34.221Z,29.10
2018-07-31T17:26:36.957Z,28.70
2018-07-31T17:30:42.872Z,28.50
2018-07-31T17:34:45.680Z,28.40
2018-07-31T17:38:48.549Z,28.40
2018-07-31T17:42:51.572Z,28.30
2018-07-31T17:46:54.527Z,28.30
2018-07-31T17:50:57.802Z,28.10
2018-07-31T17:55:00.602Z,28.00
2018-07-31T17:59:03.414Z,27.80
2018-07-31T18:03:06.195Z,27.70
2018-07-31T18:07:08.999Z,27.50
2018-07-31T18:11:11.908Z,27.40
2018-07-31T18:15:14.801Z,27.30
2018-07-31T18:19:17.551Z,27.20
2018-07-31T18:23:20.577Z,27.10
2018-07-31T18:27:23.585Z,27.00
2018-07-31T18:31:29.407Z,27.00
2018-07-31T18:35:32.373Z,26.80
2018-07-31T18:39:35.248Z,26.60
2018-07-31T18:43:38.201Z,26.60
2018-07-31T18:47:41.172Z,26.50
2018-07-31T18:51:44.830Z,26.50
2018-07-31T18:55:47.661Z,26.30
2018-07-31T18:59:50.491Z,26.20
2018-07-31T19:03:53.288Z,26.10
2018-07-31T19:07:56.138Z,26.10
2018-07-31T19:11:58.942Z,26.00
2018-07-31T19:16:01.741Z,25.80
2018-07-31T19:20:04.732Z,25.80
2018-07-31T19:24:07.520Z,25.80
2018-07-31T19:28:10.407Z,25.70
2018-07-31T19:32:13.116Z,25.60
2018-07-31T19:36:15.934Z,25.60
2018-07-31T19:40:18.723Z,25.50
2018-07-31T19:44:21.604Z,25.40
2018-07-31T19:48:24.418Z,25.30
2018-07-31T19:52:27.137Z,25.20
2018-07-31T19:56:29.893Z,25.20
2018-07-31T20:00:32.685Z,25.10
2018-07-31T20:04:35.437Z,25.00
2018-07-31T20:08:38.618Z,24.90
2018-07-31T20:12:41.359Z,24.80
2018-07-31T20:16:44.188Z,24.80
2018-07-31T20:20:47.033Z,24.70
2018-07-31T20:24:49.904Z,24.60
2018-07-31T20:28:52.743Z,24.50
2018-07-31T20:32:55.488Z,24.40
2018-07-31T20:36:58.451Z,24.30
2018-07-31T20:41:01.430Z,24.30
2018-07-31T20:45:04.529Z,24.10
2018-07-31T20:49:07.503Z,24.00
2018-07-31T20:53:10.490Z,24.00
2018-07-31T20:57:13.573Z,23.80
2018-07-31T21:01:16.367Z,23.70
2018-07-31T21:05:19.263Z,23.60
2018-07-31T21:09:22.072Z,23.50
2018-07-31T21:13:24.914Z,23.40
2018-07-31T21:17:27.800Z,23.30
2018-07-31T21:21:30.777Z,23.30
2018-07-31T21:25:33.605Z,23.20
2018-07-31T21:29:36.420Z,23.20
2018-07-31T21:33:39.267Z,23.10
2018-07-31T21:37:42.078Z,23.10
2018-07-31T21:41:44.933Z,23.00
2018-07-31T21:45:47.801Z,22.80
2018-07-31T21:49:50.632Z,22.80
2018-07-31T21:53:53.518Z,22.70
2018-07-31T21:57:56.585Z,22.70
2018-07-31T22:01:59.557Z,22.60
2018-07-31T22:06:02.924Z,22.60
2018-07-31T22:10:05.843Z,22.50
2018-07-31T22:14:12.281Z,22.40
2018-07-31T22:18:15.242Z,22.40
2018-07-31T22:22:19.967Z,22.40
2018-07-31T22:26:26.178Z,22.30
2018-07-31T22:30:29.236Z,22.30
2018-07-31T22:34:32.224Z,22.20
2018-07-31T22:38:35.210Z,22.10
2018-07-31T22:42:38.381Z,22.10
2018-07-31T22:46:41.392Z,22.00
2018-07-31T22:50:44.254Z,22.00
2018-07-31T22:54:47.267Z,21.90
2018-07-31T22:58:50.134Z,21.80
2018-07-31T23:02:52.974Z,21.80
2018-07-31T23:06:55.897Z,21.70
2018-07-31T23:10:58.781Z,21.60
2018-07-31T23:15:02.538Z,21.60
2018-07-31T23:19:05.738Z,21.50
2018-07-31T23:23:08.569Z,21.50
2018-07-31T23:27:11.360Z,21.40
2018-07-31T23:31:15.036Z,21.30
2018-07-31T23:35:17.876Z,21.30
2018-07-31T23:39:20.665Z,21.20
2018-07-31T23:47:27.237Z,21.00
2018-07-31T23:51:30.023Z,21.00
2018-07-31T23:55:32.836Z,21.00
2018-07-31T23:59:35.574Z,20.90
